sensor_id;sensor_type;location;lat;lon;timestamp;P1;durP1;ratioP1;P2;durP2;ratioP2
9306;SDS011;4691;47.612;7.610;2023-04-15T00:01:31;11.20;;;5.40;;
9306;SDS011;4691;47.612;7.610;2023-04-15T00:03:58;12.00;;;5.40;;
9306;SDS011;4691;47.612;7.610;2023-04-15T00:06:23;12.07;;;5.28;;
9306;SDS011;4691;47.612;7.610;2023-04-15T00:08:49;10.20;;;4.90;;
9306;SDS011;4691;47.612;7.610;2023-04-15T00:11:14;10.45;;;4.85;;
9306;SDS011;4691;47.612;7.610;2023-04-15T00:13:40;13.27;;;4.90;;
9306;SDS011;4691;47.612;7.610;2023-04-15T00:16:06;12.65;;;4.97;;
9306;SDS011;4691;47.612;7.610;2023-04-15T00:18:32;9.75;;;4.60;;
9306;SDS011;4691;47.612;7.610;2023-04-15T00:20:58;16.42;;;5.32;;
9306;SDS011;4691;47.612;7.610;2023-04-15T00:23:24;12.05;;;4.95;;
9306;SDS011;4691;47.612;7.610;2023-04-15T00:25:49;10.90;;;4.70;;
9306;SDS011;4691;47.612;7.610;2023-04-15T00:28:15;9.23;;;4.32;;
9306;SDS011;4691;47.612;7.610;2023-04-15T00:30:41;10.43;;;4.57;;
9306;SDS011;4691;47.612;7.610;2023-04-15T00:33:07;7.90;;;4.47;;
9306;SDS011;4691;47.612;7.610;2023-04-15T00:35:33;15.05;;;4.55;;
9306;SDS011;4691;47.612;7.610;2023-04-15T00:37:58;12.98;;;5.05;;
9306;SDS011;4691;47.612;7.610;2023-04-15T00:40:24;10.55;;;4.63;;
9306;SDS011;4691;47.612;7.610;2023-04-15T00:42:50;13.98;;;4.65;;
9306;SDS011;4691;47.612;7.610;2023-04-15T00:45:16;11.40;;;4.90;;
9306;SDS011;4691;47.612;7.610;2023-04-15T00:47:42;10.90;;;4.70;;
9306;SDS011;4691;47.612;7.610;2023-04-15T00:50:08;10.85;;;3.95;;
9306;SDS011;4691;47.612;7.610;2023-04-15T00:52:34;10.15;;;3.67;;
9306;SDS011;4691;47.612;7.610;2023-04-15T00:55:00;10.93;;;4.43;;
9306;SDS011;4691;47.612;7.610;2023-04-15T00:57:26;10.23;;;4.35;;
9306;SDS011;4691;47.612;7.610;2023-04-15T00:59:52;9.63;;;4.07;;
9306;SDS011;4691;47.612;7.610;2023-04-15T01:02:21;15.23;;;4.57;;
9306;SDS011;4691;47.612;7.610;2023-04-15T01:04:47;13.13;;;4.43;;
9306;SDS011;4691;47.612;7.610;2023-04-15T01:07:12;15.20;;;4.20;;
9306;SDS011;4691;47.612;7.610;2023-04-15T01:09:38;10.02;;;4.03;;
9306;SDS011;4691;47.612;7.610;2023-04-15T01:12:04;10.60;;;4.43;;
9306;SDS011;4691;47.612;7.610;2023-04-15T01:14:29;12.68;;;5.32;;
9306;SDS011;4691;47.612;7.610;2023-04-15T01:16:55;16.48;;;6.10;;
9306;SDS011;4691;47.612;7.610;2023-04-15T01:19:21;12.95;;;5.22;;
9306;SDS011;4691;47.612;7.610;2023-04-15T01:21:46;12.18;;;4.30;;
9306;SDS011;4691;47.612;7.610;2023-04-15T01:24:12;7.03;;;3.65;;
9306;SDS011;4691;47.612;7.610;2023-04-15T01:26:41;9.32;;;3.70;;
9306;SDS011;4691;47.612;7.610;2023-04-15T01:29:07;9.95;;;3.78;;
9306;SDS011;4691;47.612;7.610;2023-04-15T01:31:32;11.93;;;4.20;;
9306;SDS011;4691;47.612;7.610;2023-04-15T01:33:58;9.15;;;4.20;;
9306;SDS011;4691;47.612;7.610;2023-04-15T01:36:23;10.35;;;4.68;;
9306;SDS011;4691;47.612;7.610;2023-04-15T01:38:49;13.98;;;3.97;;
9306;SDS011;4691;47.612;7.610;2023-04-15T01:41:15;12.18;;;4.07;;
9306;SDS011;4691;47.612;7.610;2023-04-15T01:43:41;11.00;;;3.83;;
9306;SDS011;4691;47.612;7.610;2023-04-15T01:46:06;12.35;;;3.83;;
9306;SDS011;4691;47.612;7.610;2023-04-15T01:48:32;8.65;;;3.80;;
9306;SDS011;4691;47.612;7.610;2023-04-15T01:50:57;9.35;;;3.78;;
9306;SDS011;4691;47.612;7.610;2023-04-15T01:53:23;7.82;;;3.38;;
9306;SDS011;4691;47.612;7.610;2023-04-15T01:55:49;6.20;;;3.25;;
9306;SDS011;4691;47.612;7.610;2023-04-15T01:58:16;10.13;;;3.65;;
9306;SDS011;4691;47.612;7.610;2023-04-15T02:00:42;9.13;;;3.38;;
9306;SDS011;4691;47.612;7.610;2023-04-15T02:03:07;9.30;;;3.42;;
9306;SDS011;4691;47.612;7.610;2023-04-15T02:05:33;12.70;;;4.38;;
9306;SDS011;4691;47.612;7.610;2023-04-15T02:07:59;11.65;;;3.83;;
9306;SDS011;4691;47.612;7.610;2023-04-15T02:10:24;8.95;;;3.88;;
9306;SDS011;4691;47.612;7.610;2023-04-15T02:12:50;8.60;;;3.75;;
9306;SDS011;4691;47.612;7.610;2023-04-15T02:15:15;12.55;;;3.90;;
9306;SDS011;4691;47.612;7.610;2023-04-15T02:19:31;12.38;;;3.95;;
9306;SDS011;4691;47.612;7.610;2023-04-15T02:21:57;13.32;;;4.53;;
9306;SDS011;4691;47.612;7.610;2023-04-15T02:24:22;10.30;;;4.13;;
9306;SDS011;4691;47.612;7.610;2023-04-15T02:26:48;8.93;;;3.70;;
9306;SDS011;4691;47.612;7.610;2023-04-15T02:29:13;16.30;;;4.78;;
9306;SDS011;4691;47.612;7.610;2023-04-15T02:31:38;15.27;;;4.82;;
9306;SDS011;4691;47.612;7.610;2023-04-15T02:34:06;11.43;;;4.70;;
9306;SDS011;4691;47.612;7.610;2023-04-15T02:36:32;12.18;;;5.07;;
9306;SDS011;4691;47.612;7.610;2023-04-15T02:38:58;9.75;;;3.65;;
9306;SDS011;4691;47.612;7.610;2023-04-15T02:41:24;11.00;;;4.70;;
9306;SDS011;4691;47.612;7.610;2023-04-15T02:43:51;8.75;;;3.63;;
9306;SDS011;4691;47.612;7.610;2023-04-15T02:46:17;10.65;;;3.95;;
9306;SDS011;4691;47.612;7.610;2023-04-15T02:48:42;9.98;;;4.00;;
9306;SDS011;4691;47.612;7.610;2023-04-15T02:51:29;7.93;;;3.75;;
9306;SDS011;4691;47.612;7.610;2023-04-15T02:53:55;6.55;;;2.78;;
9306;SDS011;4691;47.612;7.610;2023-04-15T02:56:20;8.75;;;2.40;;
9306;SDS011;4691;47.612;7.610;2023-04-15T02:58:47;9.75;;;2.80;;
9306;SDS011;4691;47.612;7.610;2023-04-15T03:01:14;7.38;;;2.53;;
9306;SDS011;4691;47.612;7.610;2023-04-15T03:03:39;8.73;;;2.67;;
9306;SDS011;4691;47.612;7.610;2023-04-15T03:06:05;6.75;;;3.03;;
9306;SDS011;4691;47.612;7.610;2023-04-15T03:08:30;11.88;;;3.72;;
9306;SDS011;4691;47.612;7.610;2023-04-15T03:10:57;6.72;;;2.70;;
9306;SDS011;4691;47.612;7.610;2023-04-15T03:13:24;10.18;;;2.30;;
9306;SDS011;4691;47.612;7.610;2023-04-15T03:15:50;4.90;;;2.42;;
9306;SDS011;4691;47.612;7.610;2023-04-15T03:18:16;9.95;;;2.50;;
9306;SDS011;4691;47.612;7.610;2023-04-15T03:20:41;6.75;;;3.10;;
9306;SDS011;4691;47.612;7.610;2023-04-15T03:23:06;7.25;;;2.88;;
9306;SDS011;4691;47.612;7.610;2023-04-15T03:25:31;7.25;;;3.08;;
9306;SDS011;4691;47.612;7.610;2023-04-15T03:27:57;9.65;;;3.72;;
9306;SDS011;4691;47.612;7.610;2023-04-15T03:30:22;10.50;;;3.25;;
9306;SDS011;4691;47.612;7.610;2023-04-15T03:32:47;8.65;;;3.33;;
9306;SDS011;4691;47.612;7.610;2023-04-15T03:35:13;5.80;;;3.40;;
9306;SDS011;4691;47.612;7.610;2023-04-15T03:37:38;7.85;;;3.58;;
9306;SDS011;4691;47.612;7.610;2023-04-15T03:40:03;12.35;;;4.95;;
9306;SDS011;4691;47.612;7.610;2023-04-15T03:42:29;7.30;;;3.58;;
9306;SDS011;4691;47.612;7.610;2023-04-15T03:44:54;10.25;;;3.70;;
9306;SDS011;4691;47.612;7.610;2023-04-15T03:47:20;9.98;;;4.13;;
9306;SDS011;4691;47.612;7.610;2023-04-15T03:49:45;8.02;;;3.10;;
9306;SDS011;4691;47.612;7.610;2023-04-15T03:52:10;9.68;;;3.45;;
9306;SDS011;4691;47.612;7.610;2023-04-15T03:54:36;6.55;;;3.22;;
9306;SDS011;4691;47.612;7.610;2023-04-15T03:57:01;10.88;;;3.45;;
9306;SDS011;4691;47.612;7.610;2023-04-15T03:59:26;10.45;;;4.25;;
9306;SDS011;4691;47.612;7.610;2023-04-15T04:01:52;9.15;;;3.35;;
9306;SDS011;4691;47.612;7.610;2023-04-15T04:04:17;9.32;;;3.58;;
9306;SDS011;4691;47.612;7.610;2023-04-15T04:06:42;12.88;;;4.03;;
9306;SDS011;4691;47.612;7.610;2023-04-15T04:09:07;9.52;;;4.18;;
9306;SDS011;4691;47.612;7.610;2023-04-15T04:11:33;10.75;;;3.40;;
9306;SDS011;4691;47.612;7.610;2023-04-15T04:13:58;9.02;;;3.70;;
9306;SDS011;4691;47.612;7.610;2023-04-15T04:16:23;13.20;;;3.63;;
9306;SDS011;4691;47.612;7.610;2023-04-15T04:18:49;8.35;;;3.70;;
9306;SDS011;4691;47.612;7.610;2023-04-15T04:21:14;9.80;;;3.40;;
9306;SDS011;4691;47.612;7.610;2023-04-15T04:23:40;8.98;;;3.50;;
9306;SDS011;4691;47.612;7.610;2023-04-15T04:26:05;7.00;;;3.45;;
9306;SDS011;4691;47.612;7.610;2023-04-15T04:28:30;10.10;;;4.05;;
9306;SDS011;4691;47.612;7.610;2023-04-15T04:30:56;10.75;;;4.18;;
9306;SDS011;4691;47.612;7.610;2023-04-15T04:33:21;9.10;;;4.18;;
9306;SDS011;4691;47.612;7.610;2023-04-15T04:35:46;8.60;;;4.00;;
9306;SDS011;4691;47.612;7.610;2023-04-15T04:38:12;9.85;;;3.70;;
9306;SDS011;4691;47.612;7.610;2023-04-15T04:40:37;8.68;;;4.93;;
9306;SDS011;4691;47.612;7.610;2023-04-15T04:43:03;13.43;;;5.05;;
9306;SDS011;4691;47.612;7.610;2023-04-15T04:45:29;12.95;;;4.80;;
9306;SDS011;4691;47.612;7.610;2023-04-15T04:47:54;10.77;;;4.97;;
9306;SDS011;4691;47.612;7.610;2023-04-15T04:50:20;6.47;;;3.83;;
9306;SDS011;4691;47.612;7.610;2023-04-15T04:52:45;8.13;;;3.80;;
9306;SDS011;4691;47.612;7.610;2023-04-15T04:55:10;10.45;;;3.58;;
9306;SDS011;4691;47.612;7.610;2023-04-15T04:57:36;7.22;;;3.33;;
9306;SDS011;4691;47.612;7.610;2023-04-15T05:00:03;17.35;;;4.75;;
9306;SDS011;4691;47.612;7.610;2023-04-15T05:02:29;11.10;;;4.65;;
9306;SDS011;4691;47.612;7.610;2023-04-15T05:04:56;13.80;;;4.63;;
9306;SDS011;4691;47.612;7.610;2023-04-15T05:07:21;11.88;;;5.95;;
9306;SDS011;4691;47.612;7.610;2023-04-15T05:09:47;10.40;;;4.32;;
9306;SDS011;4691;47.612;7.610;2023-04-15T05:12:12;10.25;;;4.20;;
9306;SDS011;4691;47.612;7.610;2023-04-15T05:14:40;10.73;;;3.80;;
9306;SDS011;4691;47.612;7.610;2023-04-15T05:17:06;8.52;;;3.72;;
9306;SDS011;4691;47.612;7.610;2023-04-15T05:19:32;8.15;;;3.28;;
9306;SDS011;4691;47.612;7.610;2023-04-15T05:21:57;11.95;;;3.90;;
9306;SDS011;4691;47.612;7.610;2023-04-15T05:24:23;7.53;;;3.13;;
9306;SDS011;4691;47.612;7.610;2023-04-15T05:26:48;10.25;;;4.28;;
9306;SDS011;4691;47.612;7.610;2023-04-15T05:29:13;10.55;;;4.10;;
9306;SDS011;4691;47.612;7.610;2023-04-15T05:31:38;5.53;;;3.78;;
9306;SDS011;4691;47.612;7.610;2023-04-15T05:34:04;8.10;;;3.03;;
9306;SDS011;4691;47.612;7.610;2023-04-15T05:36:31;7.80;;;3.45;;
9306;SDS011;4691;47.612;7.610;2023-04-15T05:38:56;8.38;;;3.78;;
9306;SDS011;4691;47.612;7.610;2023-04-15T05:41:22;9.45;;;3.85;;
9306;SDS011;4691;47.612;7.610;2023-04-15T05:43:47;14.70;;;4.90;;
9306;SDS011;4691;47.612;7.610;2023-04-15T05:46:13;8.40;;;4.50;;
9306;SDS011;4691;47.612;7.610;2023-04-15T05:48:38;11.15;;;4.65;;
9306;SDS011;4691;47.612;7.610;2023-04-15T05:51:03;15.65;;;9.18;;
9306;SDS011;4691;47.612;7.610;2023-04-15T05:53:29;15.90;;;5.57;;
9306;SDS011;4691;47.612;7.610;2023-04-15T05:55:54;9.98;;;4.70;;
9306;SDS011;4691;47.612;7.610;2023-04-15T05:58:20;13.55;;;5.80;;
9306;SDS011;4691;47.612;7.610;2023-04-15T06:00:45;16.10;;;4.45;;
9306;SDS011;4691;47.612;7.610;2023-04-15T06:03:11;10.98;;;4.25;;
9306;SDS011;4691;47.612;7.610;2023-04-15T06:05:37;14.48;;;4.13;;
9306;SDS011;4691;47.612;7.610;2023-04-15T06:08:02;10.45;;;5.18;;
9306;SDS011;4691;47.612;7.610;2023-04-15T06:10:27;16.27;;;5.78;;
9306;SDS011;4691;47.612;7.610;2023-04-15T06:12:53;8.55;;;4.90;;
9306;SDS011;4691;47.612;7.610;2023-04-15T06:15:18;15.18;;;4.40;;
9306;SDS011;4691;47.612;7.610;2023-04-15T06:17:44;8.98;;;3.20;;
9306;SDS011;4691;47.612;7.610;2023-04-15T06:20:09;8.13;;;3.55;;
9306;SDS011;4691;47.612;7.610;2023-04-15T06:22:36;9.85;;;3.88;;
9306;SDS011;4691;47.612;7.610;2023-04-15T06:25:03;10.85;;;3.90;;
9306;SDS011;4691;47.612;7.610;2023-04-15T06:27:28;10.10;;;3.28;;
9306;SDS011;4691;47.612;7.610;2023-04-15T06:29:54;8.23;;;3.67;;
9306;SDS011;4691;47.612;7.610;2023-04-15T06:32:20;12.70;;;4.70;;
9306;SDS011;4691;47.612;7.610;2023-04-15T06:34:45;17.30;;;4.38;;
9306;SDS011;4691;47.612;7.610;2023-04-15T06:37:10;10.45;;;3.72;;
9306;SDS011;4691;47.612;7.610;2023-04-15T06:39:40;13.30;;;4.00;;
9306;SDS011;4691;47.612;7.610;2023-04-15T06:42:05;10.73;;;3.75;;
9306;SDS011;4691;47.612;7.610;2023-04-15T06:44:30;7.40;;;3.30;;
9306;SDS011;4691;47.612;7.610;2023-04-15T06:46:56;12.27;;;4.20;;
9306;SDS011;4691;47.612;7.610;2023-04-15T06:49:21;10.63;;;3.63;;
9306;SDS011;4691;47.612;7.610;2023-04-15T06:51:46;9.63;;;3.03;;
9306;SDS011;4691;47.612;7.610;2023-04-15T06:54:12;6.32;;;2.80;;
9306;SDS011;4691;47.612;7.610;2023-04-15T06:56:37;7.78;;;3.38;;
9306;SDS011;4691;47.612;7.610;2023-04-15T06:59:02;9.70;;;4.03;;
9306;SDS011;4691;47.612;7.610;2023-04-15T07:01:28;6.35;;;3.70;;
9306;SDS011;4691;47.612;7.610;2023-04-15T07:03:53;9.10;;;3.40;;
9306;SDS011;4691;47.612;7.610;2023-04-15T07:06:18;6.95;;;3.22;;
9306;SDS011;4691;47.612;7.610;2023-04-15T07:08:44;6.28;;;3.10;;
9306;SDS011;4691;47.612;7.610;2023-04-15T07:11:12;9.57;;;3.45;;
9306;SDS011;4691;47.612;7.610;2023-04-15T07:13:38;12.05;;;3.53;;
9306;SDS011;4691;47.612;7.610;2023-04-15T07:16:03;8.45;;;3.42;;
9306;SDS011;4691;47.612;7.610;2023-04-15T07:18:29;9.55;;;3.50;;
9306;SDS011;4691;47.612;7.610;2023-04-15T07:20:57;9.40;;;3.58;;
9306;SDS011;4691;47.612;7.610;2023-04-15T07:23:22;9.55;;;3.50;;
9306;SDS011;4691;47.612;7.610;2023-04-15T07:25:48;9.25;;;3.80;;
9306;SDS011;4691;47.612;7.610;2023-04-15T07:28:13;8.82;;;3.72;;
9306;SDS011;4691;47.612;7.610;2023-04-15T07:30:41;11.77;;;3.88;;
9306;SDS011;4691;47.612;7.610;2023-04-15T07:33:06;7.85;;;3.38;;
9306;SDS011;4691;47.612;7.610;2023-04-15T07:35:32;8.77;;;3.53;;
9306;SDS011;4691;47.612;7.610;2023-04-15T07:37:57;11.68;;;4.15;;
9306;SDS011;4691;47.612;7.610;2023-04-15T07:40:23;13.55;;;4.25;;
9306;SDS011;4691;47.612;7.610;2023-04-15T07:42:48;10.35;;;4.10;;
9306;SDS011;4691;47.612;7.610;2023-04-15T07:45:14;8.70;;;4.05;;
9306;SDS011;4691;47.612;7.610;2023-04-15T07:47:40;9.95;;;3.88;;
9306;SDS011;4691;47.612;7.610;2023-04-15T07:50:06;11.38;;;4.68;;
9306;SDS011;4691;47.612;7.610;2023-04-15T07:52:34;10.82;;;4.90;;
9306;SDS011;4691;47.612;7.610;2023-04-15T07:55:04;10.75;;;3.97;;
9306;SDS011;4691;47.612;7.610;2023-04-15T07:57:32;9.50;;;4.40;;
9306;SDS011;4691;47.612;7.610;2023-04-15T07:59:58;6.38;;;4.05;;
9306;SDS011;4691;47.612;7.610;2023-04-15T08:02:24;12.32;;;4.93;;
9306;SDS011;4691;47.612;7.610;2023-04-15T08:04:50;9.20;;;4.43;;
9306;SDS011;4691;47.612;7.610;2023-04-15T08:07:16;9.43;;;4.40;;
9306;SDS011;4691;47.612;7.610;2023-04-15T08:09:42;10.13;;;4.35;;
9306;SDS011;4691;47.612;7.610;2023-04-15T08:12:07;9.90;;;4.25;;
9306;SDS011;4691;47.612;7.610;2023-04-15T08:14:36;12.15;;;4.60;;
9306;SDS011;4691;47.612;7.610;2023-04-15T08:17:01;13.27;;;4.45;;
9306;SDS011;4691;47.612;7.610;2023-04-15T08:19:28;11.98;;;4.32;;
9306;SDS011;4691;47.612;7.610;2023-04-15T08:21:53;11.38;;;4.97;;
9306;SDS011;4691;47.612;7.610;2023-04-15T08:24:19;8.10;;;4.50;;
9306;SDS011;4691;47.612;7.610;2023-04-15T08:26:44;10.77;;;4.60;;
9306;SDS011;4691;47.612;7.610;2023-04-15T08:29:11;9.05;;;4.15;;
9306;SDS011;4691;47.612;7.610;2023-04-15T08:31:36;10.82;;;4.20;;
9306;SDS011;4691;47.612;7.610;2023-04-15T08:34:01;7.60;;;4.28;;
9306;SDS011;4691;47.612;7.610;2023-04-15T08:36:27;7.78;;;4.38;;
9306;SDS011;4691;47.612;7.610;2023-04-15T08:38:53;7.65;;;4.35;;
9306;SDS011;4691;47.612;7.610;2023-04-15T08:41:22;6.18;;;4.07;;
9306;SDS011;4691;47.612;7.610;2023-04-15T08:43:52;9.00;;;4.07;;
9306;SDS011;4691;47.612;7.610;2023-04-15T08:46:20;9.02;;;4.50;;
9306;SDS011;4691;47.612;7.610;2023-04-15T08:48:47;7.78;;;4.28;;
9306;SDS011;4691;47.612;7.610;2023-04-15T08:51:13;6.75;;;3.72;;
9306;SDS011;4691;47.612;7.610;2023-04-15T08:53:40;6.70;;;3.63;;
9306;SDS011;4691;47.612;7.610;2023-04-15T08:56:07;10.77;;;3.53;;
9306;SDS011;4691;47.612;7.610;2023-04-15T08:58:34;5.82;;;3.15;;
9306;SDS011;4691;47.612;7.610;2023-04-15T09:01:00;5.75;;;3.38;;
9306;SDS011;4691;47.612;7.610;2023-04-15T09:03:25;5.22;;;3.30;;
9306;SDS011;4691;47.612;7.610;2023-04-15T09:05:52;8.02;;;3.45;;
9306;SDS011;4691;47.612;7.610;2023-04-15T09:08:18;5.80;;;3.22;;
9306;SDS011;4691;47.612;7.610;2023-04-15T09:10:44;5.25;;;3.17;;
9306;SDS011;4691;47.612;7.610;2023-04-15T09:13:09;4.05;;;2.50;;
9306;SDS011;4691;47.612;7.610;2023-04-15T09:15:37;3.17;;;2.33;;
9306;SDS011;4691;47.612;7.610;2023-04-15T09:18:03;3.95;;;2.20;;
9306;SDS011;4691;47.612;7.610;2023-04-15T09:20:39;5.13;;;2.70;;
9306;SDS011;4691;47.612;7.610;2023-04-15T09:23:11;4.70;;;2.10;;
9306;SDS011;4691;47.612;7.610;2023-04-15T09:25:38;3.90;;;2.20;;
9306;SDS011;4691;47.612;7.610;2023-04-15T09:28:06;3.45;;;2.00;;
9306;SDS011;4691;47.612;7.610;2023-04-15T09:30:35;4.25;;;2.20;;
9306;SDS011;4691;47.612;7.610;2023-04-15T09:33:01;2.92;;;1.80;;
9306;SDS011;4691;47.612;7.610;2023-04-15T09:35:27;3.63;;;1.60;;
9306;SDS011;4691;47.612;7.610;2023-04-15T09:37:53;2.75;;;1.58;;
9306;SDS011;4691;47.612;7.610;2023-04-15T09:40:33;2.20;;;1.50;;
9306;SDS011;4691;47.612;7.610;2023-04-15T09:43:03;3.40;;;1.65;;
9306;SDS011;4691;47.612;7.610;2023-04-15T09:45:30;2.03;;;1.40;;
9306;SDS011;4691;47.612;7.610;2023-04-15T09:47:57;2.35;;;1.33;;
9306;SDS011;4691;47.612;7.610;2023-04-15T09:50:41;4.07;;;1.70;;
9306;SDS011;4691;47.612;7.610;2023-04-15T09:53:14;3.65;;;1.50;;
9306;SDS011;4691;47.612;7.610;2023-04-15T09:55:59;3.03;;;1.20;;
9306;SDS011;4691;47.612;7.610;2023-04-15T09:58:30;4.80;;;1.50;;
9306;SDS011;4691;47.612;7.610;2023-04-15T10:00:58;4.75;;;2.00;;
9306;SDS011;4691;47.612;7.610;2023-04-15T10:05:52;5.45;;;1.50;;
9306;SDS011;4691;47.612;7.610;2023-04-15T10:08:20;3.55;;;1.50;;
9306;SDS011;4691;47.612;7.610;2023-04-15T10:10:57;2.83;;;1.70;;
9306;SDS011;4691;47.612;7.610;2023-04-15T10:13:23;4.30;;;2.10;;
9306;SDS011;4691;47.612;7.610;2023-04-15T10:15:54;4.95;;;1.80;;
9306;SDS011;4691;47.612;7.610;2023-04-15T10:18:22;5.95;;;2.00;;
9306;SDS011;4691;47.612;7.610;2023-04-15T10:20:50;1.83;;;1.45;;
9306;SDS011;4691;47.612;7.610;2023-04-15T10:23:16;4.55;;;1.90;;
9306;SDS011;4691;47.612;7.610;2023-04-15T10:25:42;6.60;;;2.53;;
9306;SDS011;4691;47.612;7.610;2023-04-15T10:28:10;4.07;;;2.13;;
9306;SDS011;4691;47.612;7.610;2023-04-15T10:30:35;3.35;;;1.90;;
9306;SDS011;4691;47.612;7.610;2023-04-15T10:33:04;6.97;;;2.47;;
9306;SDS011;4691;47.612;7.610;2023-04-15T10:35:30;7.15;;;2.60;;
9306;SDS011;4691;47.612;7.610;2023-04-15T10:37:58;5.30;;;2.40;;
9306;SDS011;4691;47.612;7.610;2023-04-15T10:40:30;5.82;;;2.50;;
9306;SDS011;4691;47.612;7.610;2023-04-15T10:43:00;5.72;;;2.63;;
9306;SDS011;4691;47.612;7.610;2023-04-15T10:45:27;5.55;;;2.67;;
9306;SDS011;4691;47.612;7.610;2023-04-15T10:50:24;5.18;;;2.58;;
9306;SDS011;4691;47.612;7.610;2023-04-15T10:52:50;7.43;;;2.35;;
9306;SDS011;4691;47.612;7.610;2023-04-15T10:55:20;5.63;;;2.33;;
9306;SDS011;4691;47.612;7.610;2023-04-15T10:57:59;4.47;;;2.47;;
9306;SDS011;4691;47.612;7.610;2023-04-15T11:02:56;7.20;;;2.90;;
9306;SDS011;4691;47.612;7.610;2023-04-15T11:08:10;6.72;;;2.83;;
9306;SDS011;4691;47.612;7.610;2023-04-15T11:13:03;4.90;;;2.42;;
9306;SDS011;4691;47.612;7.610;2023-04-15T11:15:29;6.15;;;2.63;;
9306;SDS011;4691;47.612;7.610;2023-04-15T11:17:58;14.32;;;3.00;;
9306;SDS011;4691;47.612;7.610;2023-04-15T11:20:32;7.88;;;3.00;;
9306;SDS011;4691;47.612;7.610;2023-04-15T11:22:58;5.30;;;2.38;;
9306;SDS011;4691;47.612;7.610;2023-04-15T11:25:24;5.45;;;2.65;;
9306;SDS011;4691;47.612;7.610;2023-04-15T11:27:51;5.35;;;2.22;;
9306;SDS011;4691;47.612;7.610;2023-04-15T11:30:21;6.97;;;2.70;;
9306;SDS011;4691;47.612;7.610;2023-04-15T11:32:49;3.38;;;2.17;;
9306;SDS011;4691;47.612;7.610;2023-04-15T11:35:20;6.47;;;2.17;;
9306;SDS011;4691;47.612;7.610;2023-04-15T11:37:48;3.72;;;1.88;;
9306;SDS011;4691;47.612;7.610;2023-04-15T11:40:14;5.88;;;2.53;;
9306;SDS011;4691;47.612;7.610;2023-04-15T11:42:42;4.20;;;1.80;;
9306;SDS011;4691;47.612;7.610;2023-04-15T11:45:09;3.70;;;1.85;;
9306;SDS011;4691;47.612;7.610;2023-04-15T11:47:36;1.98;;;1.60;;
9306;SDS011;4691;47.612;7.610;2023-04-15T11:50:18;4.97;;;1.92;;
9306;SDS011;4691;47.612;7.610;2023-04-15T11:52:58;2.60;;;2.00;;
9306;SDS011;4691;47.612;7.610;2023-04-15T11:55:25;5.28;;;2.35;;
9306;SDS011;4691;47.612;7.610;2023-04-15T11:58:11;3.60;;;1.92;;
9306;SDS011;4691;47.612;7.610;2023-04-15T12:00:39;3.92;;;1.80;;
9306;SDS011;4691;47.612;7.610;2023-04-15T12:03:12;3.78;;;2.00;;
9306;SDS011;4691;47.612;7.610;2023-04-15T12:06:01;3.67;;;2.10;;
9306;SDS011;4691;47.612;7.610;2023-04-15T12:11:35;4.20;;;2.05;;
9306;SDS011;4691;47.612;7.610;2023-04-15T12:14:04;2.85;;;1.42;;
9306;SDS011;4691;47.612;7.610;2023-04-15T12:16:39;1.63;;;1.38;;
9306;SDS011;4691;47.612;7.610;2023-04-15T12:19:06;2.90;;;1.75;;
9306;SDS011;4691;47.612;7.610;2023-04-15T12:21:36;3.45;;;1.88;;
9306;SDS011;4691;47.612;7.610;2023-04-15T12:24:04;5.43;;;3.45;;
9306;SDS011;4691;47.612;7.610;2023-04-15T12:31:34;5.22;;;2.10;;
9306;SDS011;4691;47.612;7.610;2023-04-15T12:34:05;7.60;;;3.63;;
9306;SDS011;4691;47.612;7.610;2023-04-15T12:36:33;2.70;;;2.03;;
9306;SDS011;4691;47.612;7.610;2023-04-15T12:39:04;4.03;;;2.40;;
9306;SDS011;4691;47.612;7.610;2023-04-15T12:41:30;3.20;;;2.60;;
9306;SDS011;4691;47.612;7.610;2023-04-15T12:43:56;3.35;;;1.73;;
9306;SDS011;4691;47.612;7.610;2023-04-15T12:46:22;3.22;;;1.90;;
9306;SDS011;4691;47.612;7.610;2023-04-15T12:48:47;5.40;;;2.85;;
9306;SDS011;4691;47.612;7.610;2023-04-15T12:51:15;8.30;;;2.70;;
9306;SDS011;4691;47.612;7.610;2023-04-15T12:53:40;5.43;;;2.60;;
9306;SDS011;4691;47.612;7.610;2023-04-15T12:56:06;4.55;;;2.08;;
9306;SDS011;4691;47.612;7.610;2023-04-15T12:58:31;3.35;;;2.08;;
9306;SDS011;4691;47.612;7.610;2023-04-15T13:00:57;3.35;;;2.00;;
9306;SDS011;4691;47.612;7.610;2023-04-15T13:03:22;3.03;;;1.90;;
9306;SDS011;4691;47.612;7.610;2023-04-15T13:05:48;4.47;;;2.10;;
9306;SDS011;4691;47.612;7.610;2023-04-15T13:08:13;2.30;;;2.00;;
9306;SDS011;4691;47.612;7.610;2023-04-15T13:10:39;3.53;;;2.00;;
9306;SDS011;4691;47.612;7.610;2023-04-15T13:13:06;3.80;;;1.55;;
9306;SDS011;4691;47.612;7.610;2023-04-15T13:15:32;2.60;;;1.63;;
9306;SDS011;4691;47.612;7.610;2023-04-15T13:17:57;2.83;;;2.03;;
9306;SDS011;4691;47.612;7.610;2023-04-15T13:20:22;4.85;;;2.00;;
9306;SDS011;4691;47.612;7.610;2023-04-15T13:22:48;2.75;;;1.73;;
9306;SDS011;4691;47.612;7.610;2023-04-15T13:25:14;4.15;;;2.40;;
9306;SDS011;4691;47.612;7.610;2023-04-15T13:27:39;3.75;;;3.40;;
9306;SDS011;4691;47.612;7.610;2023-04-15T13:30:05;5.88;;;2.20;;
9306;SDS011;4691;47.612;7.610;2023-04-15T13:32:31;3.15;;;2.10;;
9306;SDS011;4691;47.612;7.610;2023-04-15T13:34:56;3.53;;;2.20;;
9306;SDS011;4691;47.612;7.610;2023-04-15T13:37:25;5.03;;;2.45;;
9306;SDS011;4691;47.612;7.610;2023-04-15T13:39:52;3.65;;;1.90;;
9306;SDS011;4691;47.612;7.610;2023-04-15T13:42:17;3.00;;;2.00;;
9306;SDS011;4691;47.612;7.610;2023-04-15T13:44:43;4.38;;;2.47;;
9306;SDS011;4691;47.612;7.610;2023-04-15T13:47:08;4.15;;;2.40;;
9306;SDS011;4691;47.612;7.610;2023-04-15T13:49:33;7.00;;;2.70;;
9306;SDS011;4691;47.612;7.610;2023-04-15T13:51:59;4.65;;;2.28;;
9306;SDS011;4691;47.612;7.610;2023-04-15T13:54:24;4.32;;;2.88;;
9306;SDS011;4691;47.612;7.610;2023-04-15T13:56:49;5.63;;;2.95;;
9306;SDS011;4691;47.612;7.610;2023-04-15T13:59:15;4.03;;;2.40;;
9306;SDS011;4691;47.612;7.610;2023-04-15T14:01:40;3.90;;;2.30;;
9306;SDS011;4691;47.612;7.610;2023-04-15T14:04:05;4.40;;;2.72;;
9306;SDS011;4691;47.612;7.610;2023-04-15T14:06:31;4.47;;;2.30;;
9306;SDS011;4691;47.612;7.610;2023-04-15T14:08:56;12.25;;;5.45;;
9306;SDS011;4691;47.612;7.610;2023-04-15T14:11:22;22.63;;;8.18;;
9306;SDS011;4691;47.612;7.610;2023-04-15T14:13:47;4.65;;;2.53;;
9306;SDS011;4691;47.612;7.610;2023-04-15T14:16:12;2.63;;;1.90;;
9306;SDS011;4691;47.612;7.610;2023-04-15T14:18:38;4.60;;;1.88;;
9306;SDS011;4691;47.612;7.610;2023-04-15T14:21:04;3.92;;;2.03;;
9306;SDS011;4691;47.612;7.610;2023-04-15T14:23:31;3.72;;;1.73;;
9306;SDS011;4691;47.612;7.610;2023-04-15T14:25:56;7.28;;;2.20;;
9306;SDS011;4691;47.612;7.610;2023-04-15T14:28:21;6.50;;;2.60;;
9306;SDS011;4691;47.612;7.610;2023-04-15T14:30:47;5.22;;;2.50;;
9306;SDS011;4691;47.612;7.610;2023-04-15T14:33:12;4.43;;;2.05;;
9306;SDS011;4691;47.612;7.610;2023-04-15T14:35:37;5.95;;;2.40;;
9306;SDS011;4691;47.612;7.610;2023-04-15T14:38:03;3.38;;;1.90;;
9306;SDS011;4691;47.612;7.610;2023-04-15T14:40:30;5.43;;;2.58;;
9306;SDS011;4691;47.612;7.610;2023-04-15T14:42:55;5.95;;;2.70;;
9306;SDS011;4691;47.612;7.610;2023-04-15T14:45:21;10.48;;;6.28;;
9306;SDS011;4691;47.612;7.610;2023-04-15T14:47:46;6.28;;;4.05;;
9306;SDS011;4691;47.612;7.610;2023-04-15T14:50:11;6.55;;;2.88;;
9306;SDS011;4691;47.612;7.610;2023-04-15T14:52:37;4.80;;;2.60;;
9306;SDS011;4691;47.612;7.610;2023-04-15T14:55:06;7.35;;;3.08;;
9306;SDS011;4691;47.612;7.610;2023-04-15T14:57:33;4.15;;;2.03;;
9306;SDS011;4691;47.612;7.610;2023-04-15T14:59:58;2.78;;;1.90;;
9306;SDS011;4691;47.612;7.610;2023-04-15T15:02:24;2.88;;;1.80;;
9306;SDS011;4691;47.612;7.610;2023-04-15T15:04:49;6.53;;;2.40;;
9306;SDS011;4691;47.612;7.610;2023-04-15T15:07:15;3.78;;;2.20;;
9306;SDS011;4691;47.612;7.610;2023-04-15T15:09:40;3.92;;;2.00;;
9306;SDS011;4691;47.612;7.610;2023-04-15T15:12:05;2.85;;;2.03;;
9306;SDS011;4691;47.612;7.610;2023-04-15T15:14:31;3.47;;;2.15;;
9306;SDS011;4691;47.612;7.610;2023-04-15T15:16:56;2.90;;;1.80;;
9306;SDS011;4691;47.612;7.610;2023-04-15T15:19:21;3.38;;;2.05;;
9306;SDS011;4691;47.612;7.610;2023-04-15T15:21:48;3.22;;;1.75;;
9306;SDS011;4691;47.612;7.610;2023-04-15T15:24:14;3.92;;;1.83;;
9306;SDS011;4691;47.612;7.610;2023-04-15T15:26:39;1.88;;;1.40;;
9306;SDS011;4691;47.612;7.610;2023-04-15T15:29:05;2.90;;;1.70;;